createdAt,value
2019-05-23T00:00:08.806Z,87.94
2019-05-23T00:01:08.891Z,88.29
2019-05-23T00:02:08.814Z,88.29
2019-05-23T00:03:08.786Z,87.67
2019-05-23T00:04:08.764Z,87.67
2019-05-23T00:05:08.757Z,87.88
2019-05-23T00:06:08.739Z,87.98
2019-05-23T00:07:08.815Z,87.40
2019-05-23T00:08:08.723Z,88.37
2019-05-23T00:09:08.714Z,88.37
2019-05-23T00:10:08.714Z,88.31
2019-05-23T00:11:08.686Z,89.23
2019-05-23T00:12:08.671Z,89.85
2019-05-23T00:13:10.540Z,89.54
2019-05-23T00:14:08.659Z,90.47
2019-05-23T00:15:08.688Z,90.61
2019-05-23T00:16:08.632Z,90.41
2019-05-23T00:17:08.684Z,91.23
2019-05-23T00:18:08.662Z,91.13
2019-05-23T00:19:08.597Z,92.16
2019-05-23T00:20:08.584Z,92.25
2019-05-23T00:21:08.590Z,92.11
2019-05-23T00:22:08.619Z,92.11
2019-05-23T00:23:08.586Z,92.32
2019-05-23T00:24:08.565Z,92.52
2019-05-23T00:25:08.528Z,92.42
2019-05-23T00:26:08.524Z,91.91
2019-05-23T00:27:08.510Z,92.07
2019-05-23T00:28:08.519Z,91.80
2019-05-23T00:29:10.349Z,91.39
2019-05-23T00:30:08.513Z,91.29
2019-05-23T00:31:08.475Z,91.39
2019-05-23T00:32:08.455Z,91.19
2019-05-23T00:33:08.470Z,90.16
2019-05-23T00:34:08.434Z,89.44
2019-05-23T00:35:08.426Z,88.89
2019-05-23T00:36:08.418Z,88.47
2019-05-23T00:37:08.401Z,87.13
2019-05-23T00:38:08.406Z,87.04
2019-05-23T00:39:08.372Z,86.93
2019-05-23T00:40:08.365Z,85.86
2019-05-23T00:41:08.347Z,84.49
2019-05-23T00:42:08.374Z,84.18
2019-05-23T00:43:08.356Z,83.98
2019-05-23T00:44:08.321Z,84.59
2019-05-23T00:45:08.311Z,84.69
2019-05-23T00:46:08.334Z,84.90
2019-05-23T00:47:08.292Z,86.03
2019-05-23T00:48:08.325Z,86.89
2019-05-23T00:49:08.269Z,87.24
2019-05-23T00:50:08.256Z,87.45
2019-05-23T00:51:08.251Z,88.57
2019-05-23T00:52:08.261Z,88.51
2019-05-23T00:53:08.311Z,88.82
2019-05-23T00:54:08.246Z,89.13
2019-05-23T00:55:08.205Z,89.23
2019-05-23T00:56:08.210Z,88.92
2019-05-23T00:57:08.179Z,89.85
2019-05-23T00:58:08.199Z,89.48
2019-05-23T00:59:08.168Z,89.64
2019-05-23T01:00:08.180Z,89.48
2019-05-23T01:01:08.151Z,90.20
2019-05-23T01:02:08.116Z,90.20
2019-05-23T01:03:08.142Z,90.66
2019-05-23T01:04:08.148Z,90.20
2019-05-23T01:05:08.088Z,90.34
2019-05-23T01:06:08.072Z,90.61
2019-05-23T01:07:08.106Z,90.30
2019-05-23T01:08:08.082Z,90.09
2019-05-23T01:09:08.043Z,89.64
2019-05-23T01:10:08.041Z,89.75
2019-05-23T01:11:08.021Z,89.64
2019-05-23T01:12:08.019Z,89.23
2019-05-23T01:13:08.025Z,89.28
2019-05-23T01:14:08.040Z,89.07
2019-05-23T01:15:07.980Z,90.00
2019-05-23T01:16:07.975Z,89.89
2019-05-23T01:17:08.014Z,89.58
2019-05-23T01:18:07.973Z,89.58
2019-05-23T01:19:07.986Z,89.17
2019-05-23T01:20:07.921Z,89.69
2019-05-23T01:21:07.913Z,89.11
2019-05-23T01:22:07.905Z,89.79
2019-05-23T01:23:07.950Z,89.62
2019-05-23T01:24:07.891Z,89.83
2019-05-23T01:25:07.865Z,90.24
2019-05-23T01:26:07.895Z,90.14
2019-05-23T01:27:07.845Z,91.31
2019-05-23T01:28:07.837Z,90.75
2019-05-23T01:29:08.374Z,91.47
2019-05-23T01:30:07.838Z,91.21
2019-05-23T01:31:07.789Z,90.08
2019-05-23T01:32:07.812Z,90.34
2019-05-23T01:33:07.814Z,90.08
2019-05-23T01:34:07.795Z,89.87
2019-05-23T01:35:07.756Z,89.46
2019-05-23T01:36:07.750Z,90.64
2019-05-23T01:37:07.744Z,90.73
2019-05-23T01:38:07.745Z,91.36
2019-05-23T01:39:08.388Z,92.08
2019-05-23T01:40:07.722Z,92.02
2019-05-23T01:41:07.742Z,91.97
2019-05-23T01:42:07.678Z,92.18
2019-05-23T01:43:07.678Z,92.08
2019-05-23T01:44:07.698Z,92.38
2019-05-23T01:45:07.647Z,91.97
2019-05-23T01:46:07.652Z,91.46
2019-05-23T01:47:07.632Z,91.25
2019-05-23T01:48:07.615Z,91.05
2019-05-23T01:49:07.618Z,90.33
2019-05-23T01:50:07.597Z,90.28
2019-05-23T01:51:07.628Z,89.91
2019-05-23T01:52:07.598Z,89.81
2019-05-23T01:53:07.552Z,90.01
2019-05-23T01:54:07.618Z,89.91
2019-05-23T01:55:07.549Z,90.22
2019-05-23T01:56:07.531Z,90.22
2019-05-23T01:57:07.520Z,90.26
2019-05-23T01:58:07.501Z,90.47
2019-05-23T01:59:07.513Z,90.16
2019-05-23T02:00:10.748Z,90.37
2019-05-23T02:01:07.492Z,90.78
2019-05-23T02:02:07.469Z,91.24
2019-05-23T02:03:07.443Z,91.30
2019-05-23T02:04:07.531Z,91.34
2019-05-23T02:05:07.457Z,91.44
2019-05-23T02:06:07.430Z,91.64
2019-05-23T02:07:07.416Z,92.68
2019-05-23T02:08:07.402Z,92.37
2019-05-23T02:09:07.418Z,91.85
2019-05-23T02:10:07.379Z,91.13
2019-05-23T02:11:07.364Z,91.34
2019-05-23T02:12:07.346Z,91.64
2019-05-23T02:13:07.331Z,91.96
2019-05-23T02:14:07.367Z,92.57
2019-05-23T02:15:07.396Z,92.57
2019-05-23T02:16:07.324Z,92.68
2019-05-23T02:17:07.299Z,92.57
2019-05-23T02:18:07.290Z,92.78
2019-05-23T02:19:07.319Z,92.06
2019-05-23T02:20:07.303Z,91.85
2019-05-23T02:21:07.254Z,92.51
2019-05-23T02:22:07.228Z,92.78
2019-05-23T02:23:07.263Z,92.51
2019-05-23T02:24:07.239Z,92.82
2019-05-23T02:25:07.211Z,92.41
2019-05-23T02:26:07.198Z,92.10
2019-05-23T02:27:07.180Z,92.31
2019-05-23T02:28:07.176Z,92.51
2019-05-23T02:29:07.208Z,92.51
2019-05-23T02:30:07.150Z,92.10
2019-05-23T02:31:07.191Z,92.21
2019-05-23T02:32:07.121Z,92.35
2019-05-23T02:33:07.114Z,92.93
2019-05-23T02:34:07.133Z,92.82
2019-05-23T02:35:07.138Z,93.69
2019-05-23T02:36:07.086Z,93.44
2019-05-23T02:37:07.070Z,93.24
2019-05-23T02:38:07.068Z,93.54
2019-05-23T02:39:07.090Z,93.34
2019-05-23T02:40:07.051Z,92.35
2019-05-23T02:41:07.029Z,92.97
2019-05-23T02:42:07.017Z,92.97
2019-05-23T02:43:07.007Z,94.10
2019-05-23T02:44:07.017Z,93.49
2019-05-23T02:45:06.994Z,93.07
2019-05-23T02:46:06.973Z,93.49
2019-05-23T02:47:07.015Z,93.79
2019-05-23T02:48:06.957Z,93.59
2019-05-23T02:49:06.963Z,94.10
2019-05-23T02:50:06.923Z,93.69
2019-05-23T02:51:07.008Z,93.69
2019-05-23T02:52:06.916Z,93.90
2019-05-23T02:53:06.903Z,93.79
2019-05-23T02:54:06.930Z,94.21
2019-05-23T02:55:06.875Z,93.73
2019-05-23T02:56:06.854Z,93.69
2019-05-23T02:57:06.918Z,93.28
2019-05-23T02:58:06.856Z,94.04
2019-05-23T02:59:07.024Z,93.90
2019-05-23T03:00:06.812Z,94.35
2019-05-23T03:01:06.800Z,94.15
2019-05-23T03:02:06.799Z,93.63
2019-05-23T03:03:06.789Z,94.04
2019-05-23T03:04:06.793Z,94.87
2019-05-23T03:05:06.802Z,94.67
2019-05-23T03:06:06.747Z,93.84
2019-05-23T03:07:06.785Z,94.46
2019-05-23T03:08:06.775Z,94.67
2019-05-23T03:09:06.724Z,94.04
2019-05-23T03:10:06.742Z,94.31
2019-05-23T03:11:06.731Z,94.15
2019-05-23T03:12:06.683Z,94.56
2019-05-23T03:13:06.673Z,94.52
2019-05-23T03:14:06.665Z,94.87
2019-05-23T03:15:08.555Z,94.67
2019-05-23T03:16:06.674Z,94.97
2019-05-23T03:17:06.665Z,94.56
2019-05-23T03:18:06.673Z,94.87
2019-05-23T03:19:06.602Z,94.56
2019-05-23T03:20:06.621Z,94.15
2019-05-23T03:21:06.582Z,94.67
2019-05-23T03:22:06.579Z,94.56
2019-05-23T03:23:06.575Z,94.97
2019-05-23T03:24:06.554Z,94.25
2019-05-23T03:25:06.564Z,93.94
2019-05-23T03:26:06.531Z,94.04
2019-05-23T03:27:06.533Z,94.56
2019-05-23T03:28:06.514Z,94.46
2019-05-23T03:29:06.520Z,93.84
2019-05-23T03:30:06.575Z,93.73
2019-05-23T03:31:26.991Z,94.56
2019-05-23T03:32:07.459Z,94.46
2019-05-23T03:33:06.468Z,94.56
2019-05-23T03:34:06.443Z,94.46
2019-05-23T03:35:06.474Z,93.63
2019-05-23T03:36:06.447Z,93.73
2019-05-23T03:37:06.414Z,94.15
2019-05-23T03:38:06.421Z,93.84
2019-05-23T03:39:06.406Z,93.73
2019-05-23T03:40:06.411Z,93.73
2019-05-23T03:41:06.362Z,93.49
2019-05-23T03:42:06.436Z,93.07
2019-05-23T03:43:06.354Z,92.46
2019-05-23T03:44:06.329Z,92.66
2019-05-23T03:45:06.352Z,92.86
2019-05-23T03:46:06.307Z,92.76
2019-05-23T03:47:06.293Z,92.35
2019-05-23T03:48:06.293Z,93.07
2019-05-23T03:49:06.285Z,92.97
2019-05-23T03:50:06.302Z,93.07
2019-05-23T03:51:06.267Z,92.82
2019-05-23T03:52:06.237Z,92.31
2019-05-23T03:53:06.255Z,92.00
2019-05-23T03:54:06.215Z,91.17
2019-05-23T03:55:06.232Z,91.38
2019-05-23T03:56:06.199Z,91.54
2019-05-23T03:57:06.179Z,90.97
2019-05-23T03:58:06.174Z,90.97
2019-05-23T03:59:06.168Z,91.48
2019-05-23T04:00:06.209Z,91.07
2019-05-23T04:01:06.172Z,90.20
2019-05-23T04:02:06.134Z,90.20
2019-05-23T04:03:06.141Z,89.89
2019-05-23T04:04:06.116Z,89.95
2019-05-23T04:05:06.157Z,89.44
2019-05-23T04:06:06.084Z,88.82
2019-05-23T04:07:06.076Z,88.68
2019-05-23T04:08:06.076Z,88.17
2019-05-23T04:09:06.079Z,87.96
2019-05-23T04:10:06.071Z,87.44
2019-05-23T04:11:06.063Z,87.51
2019-05-23T04:12:06.022Z,86.31
2019-05-23T04:13:06.012Z,86.58
2019-05-23T04:14:06.050Z,86.82
2019-05-23T04:15:06.028Z,87.24
2019-05-23T04:16:05.972Z,87.34
2019-05-23T04:17:05.981Z,87.54
2019-05-23T04:18:05.946Z,87.30
2019-05-23T04:19:05.966Z,87.60
2019-05-23T04:20:05.963Z,87.09
2019-05-23T04:21:05.944Z,87.40
2019-05-23T04:22:05.909Z,87.09
2019-05-23T04:23:05.939Z,88.23
2019-05-23T04:24:05.886Z,87.57
2019-05-23T04:25:05.899Z,86.85
2019-05-23T04:26:05.866Z,86.33
2019-05-23T04:27:05.854Z,86.19
2019-05-23T04:28:05.854Z,84.85
2019-05-23T04:29:05.831Z,85.43
2019-05-23T04:30:05.911Z,84.30
2019-05-23T04:31:05.816Z,83.48
2019-05-23T04:32:08.895Z,82.92
2019-05-23T04:33:05.806Z,82.51
2019-05-23T04:34:05.783Z,81.62
2019-05-23T04:35:05.799Z,81.45
2019-05-23T04:36:05.749Z,80.79
2019-05-23T04:37:05.767Z,80.49
2019-05-23T04:38:05.738Z,79.73
2019-05-23T04:39:05.769Z,79.38
2019-05-23T04:40:05.742Z,78.22
2019-05-23T04:41:05.705Z,78.32
2019-05-23T04:42:05.713Z,77.20
2019-05-23T04:43:05.677Z,76.34
2019-05-23T04:44:05.704Z,76.06
2019-05-23T04:45:05.689Z,74.08
2019-05-23T04:46:05.698Z,72.79
2019-05-23T04:47:05.683Z,72.34
2019-05-23T04:48:05.626Z,70.68
2019-05-23T04:49:05.612Z,69.38
2019-05-23T04:50:05.625Z,69.38
2019-05-23T04:51:05.592Z,68.95
2019-05-23T04:52:05.595Z,68.51
2019-05-23T04:53:05.571Z,68.10
2019-05-23T04:54:05.572Z,66.94
2019-05-23T04:55:05.611Z,67.66
2019-05-23T04:56:05.530Z,66.38
2019-05-23T04:57:05.540Z,66.04
2019-05-23T04:58:05.542Z,64.58
2019-05-23T04:59:05.501Z,64.15
2019-05-23T05:00:05.580Z,64.22
2019-05-23T05:01:05.476Z,63.28
2019-05-23T05:02:05.505Z,63.28
2019-05-23T05:03:05.494Z,63.04
2019-05-23T05:04:05.455Z,62.43
2019-05-23T05:05:05.493Z,61.97
2019-05-23T05:06:05.437Z,61.16
2019-05-23T05:07:05.452Z,61.46
2019-05-23T05:08:05.709Z,60.44
2019-05-23T05:09:05.386Z,61.05
2019-05-23T05:10:05.424Z,61.32
2019-05-23T05:11:05.404Z,62.87
2019-05-23T05:12:05.371Z,64.32
2019-05-23T05:13:05.372Z,64.32
2019-05-23T05:14:05.355Z,64.52
2019-05-23T05:15:05.916Z,64.79
2019-05-23T05:16:05.316Z,64.79
2019-05-23T05:17:05.341Z,64.49
2019-05-23T05:18:05.290Z,63.72
2019-05-23T05:19:05.283Z,62.68
2019-05-23T05:20:05.305Z,62.92
2019-05-23T05:21:05.260Z,60.77
2019-05-23T05:22:05.307Z,61.51
2019-05-23T05:23:05.230Z,60.86
2019-05-23T05:24:05.289Z,61.24
2019-05-23T05:25:05.239Z,61.21
2019-05-23T05:26:05.202Z,59.16
2019-05-23T05:27:05.204Z,58.20
2019-05-23T05:28:05.248Z,57.16
2019-05-23T05:29:05.162Z,56.90
2019-05-23T05:30:05.177Z,55.26
2019-05-23T05:31:05.136Z,54.94
2019-05-23T05:32:05.128Z,54.71
2019-05-23T05:33:05.175Z,53.78
2019-05-23T05:34:05.116Z,53.42
2019-05-23T05:35:05.173Z,53.20
2019-05-23T05:36:05.102Z,52.26
2019-05-23T05:37:05.070Z,51.86
2019-05-23T05:38:05.091Z,50.89
2019-05-23T05:39:05.054Z,52.22
2019-05-23T05:40:05.038Z,53.85
2019-05-23T05:41:05.070Z,51.93
2019-05-23T05:42:05.030Z,52.17
2019-05-23T05:43:05.016Z,52.49
2019-05-23T05:44:04.993Z,53.20
2019-05-23T05:45:04.987Z,54.13
2019-05-23T05:46:05.004Z,54.36
2019-05-23T05:47:04.998Z,54.83
2019-05-23T05:48:04.959Z,53.63
2019-05-23T05:49:04.942Z,53.00
2019-05-23T05:50:04.960Z,53.60
2019-05-23T05:51:05.152Z,53.38
2019-05-23T05:52:04.903Z,53.60
2019-05-23T05:53:04.915Z,53.90
2019-05-23T05:54:04.901Z,53.90
2019-05-23T05:55:04.905Z,54.03
2019-05-23T05:56:04.923Z,54.23
2019-05-23T05:57:04.853Z,54.83
2019-05-23T05:58:04.841Z,54.43
2019-05-23T05:59:04.831Z,53.90
2019-05-23T06:00:04.926Z,53.47
2019-05-23T06:01:05.432Z,53.00
2019-05-23T06:02:04.799Z,54.10
2019-05-23T06:03:05.825Z,54.56
2019-05-23T06:04:04.775Z,54.94
2019-05-23T06:05:04.763Z,53.80
2019-05-23T06:06:04.841Z,53.75
2019-05-23T06:07:04.750Z,52.62
2019-05-23T06:08:04.782Z,53.12
2019-05-23T06:09:04.712Z,53.02
2019-05-23T06:10:04.706Z,54.15
2019-05-23T06:11:04.757Z,53.58
2019-05-23T06:12:04.689Z,54.21
2019-05-23T06:13:04.687Z,53.80
2019-05-23T06:14:04.660Z,54.38
2019-05-23T06:15:04.749Z,53.67
2019-05-23T06:16:04.686Z,53.78
2019-05-23T06:17:04.702Z,53.88
2019-05-23T06:18:04.703Z,53.67
2019-05-23T06:19:04.609Z,53.45
2019-05-23T06:20:04.720Z,53.58
2019-05-23T06:21:04.724Z,53.42
2019-05-23T06:22:04.709Z,53.45
2019-05-23T06:23:04.646Z,53.88
2019-05-23T06:24:04.688Z,54.25
2019-05-23T06:25:04.695Z,53.47
2019-05-23T06:26:07.328Z,53.63
2019-05-23T06:27:04.663Z,52.59
2019-05-23T06:28:04.514Z,52.37
2019-05-23T06:29:04.608Z,52.49
2019-05-23T06:30:05.073Z,52.51
2019-05-23T06:31:19.540Z,53.12
2019-05-23T06:32:04.462Z,53.38
2019-05-23T06:33:21.736Z,53.90
2019-05-23T06:34:05.479Z,53.80
2019-05-23T06:35:04.438Z,53.05
2019-05-23T06:36:06.456Z,52.31
2019-05-23T06:37:05.144Z,53.98
2019-05-23T06:38:04.562Z,53.65
2019-05-23T06:39:08.596Z,53.52
2019-05-23T06:40:05.534Z,53.22
2019-05-23T06:41:26.083Z,52.47
2019-05-23T06:42:04.669Z,52.26
2019-05-23T06:43:04.431Z,52.09
2019-05-23T06:44:05.319Z,52.09
2019-05-23T06:45:04.449Z,53.25
2019-05-23T06:46:06.069Z,53.05
2019-05-23T06:47:04.316Z,52.82
2019-05-23T06:48:04.373Z,53.14
2019-05-23T06:49:04.291Z,53.25
2019-05-23T06:50:04.315Z,53.05
2019-05-23T06:51:04.342Z,52.84
2019-05-23T06:52:04.248Z,53.00
2019-05-23T06:53:04.244Z,51.26
2019-05-23T06:54:04.378Z,51.56
2019-05-23T06:55:04.232Z,51.64
2019-05-23T06:56:04.204Z,51.04
2019-05-23T06:57:04.249Z,51.04
2019-05-23T06:58:04.225Z,50.61
2019-05-23T06:59:04.173Z,50.89
2019-05-23T07:00:04.297Z,49.93
2019-05-23T07:01:04.194Z,50.46
2019-05-23T07:02:40.208Z,49.86
2019-05-23T07:03:04.141Z,50.26
2019-05-23T07:04:04.150Z,48.93
2019-05-23T07:05:04.196Z,48.18
2019-05-23T07:06:04.173Z,49.30
2019-05-23T07:07:10.492Z,49.91
2019-05-23T07:08:04.142Z,50.58
2019-05-23T07:09:04.694Z,50.08
2019-05-23T07:10:04.914Z,50.98
2019-05-23T07:11:04.515Z,51.09
2019-05-23T07:12:05.008Z,50.86
2019-05-23T07:13:04.121Z,49.88
2019-05-23T07:14:04.028Z,49.16
2019-05-23T07:15:04.549Z,48.98
2019-05-23T07:16:04.312Z,49.28
2019-05-23T07:17:04.172Z,49.63
2019-05-23T07:18:03.972Z,51.09
2019-05-23T07:19:03.994Z,51.18
2019-05-23T07:20:03.997Z,51.01
2019-05-23T07:21:04.042Z,50.73
2019-05-23T07:22:07.951Z,50.18
2019-05-23T07:23:03.909Z,49.46
2019-05-23T07:24:03.986Z,48.25
2019-05-23T07:25:03.891Z,47.73
2019-05-23T07:26:03.901Z,47.93
2019-05-23T07:27:05.466Z,47.28
2019-05-23T07:28:03.871Z,45.64
2019-05-23T07:29:03.865Z,45.56
2019-05-23T07:30:03.878Z,45.48
2019-05-23T07:31:03.845Z,45.66
2019-05-23T07:32:03.853Z,44.34
2019-05-23T07:33:03.793Z,44.32
2019-05-23T07:34:03.791Z,44.21
2019-05-23T07:35:03.857Z,44.35
2019-05-23T07:36:03.887Z,45.66
2019-05-23T07:37:03.785Z,45.78
2019-05-23T07:38:03.765Z,45.88
2019-05-23T07:39:03.756Z,45.24
2019-05-23T07:40:03.756Z,44.66
2019-05-23T07:41:03.712Z,46.28
2019-05-23T07:42:04.466Z,44.76
2019-05-23T07:43:03.700Z,44.42
2019-05-23T07:44:03.693Z,44.96
2019-05-23T07:45:03.673Z,44.56
2019-05-23T07:46:03.662Z,45.58
2019-05-23T07:47:03.672Z,46.30
2019-05-23T07:48:03.929Z,45.28
2019-05-23T07:49:03.672Z,44.98
2019-05-23T07:50:03.637Z,44.74
2019-05-23T07:51:03.615Z,44.64
2019-05-23T07:52:03.638Z,43.82
2019-05-23T07:53:03.598Z,43.63
2019-05-23T07:54:03.629Z,44.06
2019-05-23T07:55:03.559Z,44.96
2019-05-23T07:56:04.388Z,44.66
2019-05-23T07:57:05.479Z,45.98
2019-05-23T07:58:03.574Z,46.41
2019-05-23T07:59:03.526Z,46.48
2019-05-23T08:00:03.523Z,45.26
2019-05-23T08:01:03.502Z,44.54
2019-05-23T08:02:03.548Z,46.06
2019-05-23T08:03:03.558Z,44.71
2019-05-23T08:04:19.617Z,44.49
2019-05-23T08:05:04.462Z,44.21
2019-05-23T08:06:03.488Z,44.01
2019-05-23T08:07:04.445Z,45.34
2019-05-23T08:08:03.481Z,44.79
2019-05-23T08:09:03.427Z,44.59
2019-05-23T08:10:03.428Z,44.71
2019-05-23T08:11:03.408Z,45.31
2019-05-23T08:12:03.422Z,44.27
2019-05-23T08:13:03.614Z,45.84
2019-05-23T08:14:03.384Z,44.79
2019-05-23T08:15:03.350Z,44.35
2019-05-23T08:16:03.343Z,44.29
2019-05-23T08:17:05.130Z,44.59
2019-05-23T08:18:03.315Z,45.21
2019-05-23T08:19:03.313Z,45.64
2019-05-23T08:20:05.187Z,42.57
2019-05-23T08:21:03.285Z,45.53
2019-05-23T08:22:03.325Z,45.56
2019-05-23T08:23:03.405Z,44.98
2019-05-23T08:24:03.284Z,47.16
2019-05-23T08:25:03.244Z,45.29
2019-05-23T08:26:03.238Z,45.00
2019-05-23T08:27:06.651Z,44.39
2019-05-23T08:28:03.215Z,42.47
2019-05-23T08:29:24.701Z,40.22
2019-05-23T08:30:04.221Z,42.18
2019-05-23T08:31:03.221Z,42.96
2019-05-23T08:32:03.247Z,41.03
2019-05-23T08:33:03.174Z,40.61
2019-05-23T08:34:03.169Z,40.19
2019-05-23T08:35:03.260Z,40.17
2019-05-23T08:36:03.213Z,39.98
2019-05-23T08:37:03.195Z,40.16
2019-05-23T08:38:03.111Z,41.93
2019-05-23T08:39:03.106Z,42.10
2019-05-23T08:40:03.094Z,42.54
2019-05-23T08:41:03.113Z,40.17
2019-05-23T08:42:03.172Z,39.36
2019-05-23T08:43:03.063Z,39.94
2019-05-23T08:44:03.048Z,39.65
2019-05-23T08:45:03.118Z,40.06
2019-05-23T08:46:03.071Z,39.52
2019-05-23T08:47:03.085Z,40.14
2019-05-23T08:48:03.040Z,38.98
2019-05-23T08:49:03.122Z,38.01
2019-05-23T08:50:03.013Z,37.41
2019-05-23T08:51:02.992Z,39.40
2019-05-23T08:52:04.665Z,39.52
2019-05-23T08:53:02.947Z,40.23
2019-05-23T08:54:02.951Z,40.01
2019-05-23T08:55:02.938Z,40.59
2019-05-23T08:56:04.950Z,39.92
2019-05-23T08:57:03.956Z,41.49
2019-05-23T08:58:02.945Z,42.83
2019-05-23T08:59:02.910Z,44.78
2019-05-23T09:00:02.883Z,44.18
2019-05-23T09:01:03.042Z,44.56
2019-05-23T09:02:03.488Z,42.82
2019-05-23T09:03:02.853Z,42.19
2019-05-23T09:04:02.857Z,41.75
2019-05-23T09:05:06.006Z,40.56
2019-05-23T09:06:03.065Z,41.16
2019-05-23T09:07:03.499Z,40.06
2019-05-23T09:08:02.840Z,39.62
2019-05-23T09:09:02.927Z,38.10
2019-05-23T09:10:02.786Z,39.54
2019-05-23T09:11:02.792Z,39.30
2019-05-23T09:12:02.803Z,38.95
2019-05-23T09:13:02.827Z,38.13
2019-05-23T09:14:02.743Z,37.73
2019-05-23T09:15:02.748Z,36.76
2019-05-23T09:16:02.922Z,38.40
2019-05-23T09:17:04.472Z,38.00
2019-05-23T09:18:02.688Z,37.07
2019-05-23T09:19:02.870Z,36.42
2019-05-23T09:20:02.714Z,35.38
2019-05-23T09:21:02.685Z,37.88
2019-05-23T09:22:03.796Z,39.58
2019-05-23T09:23:06.520Z,40.47
2019-05-23T09:24:02.878Z,40.28
2019-05-23T09:25:02.668Z,40.17
2019-05-23T09:26:02.612Z,39.86
2019-05-23T09:27:02.688Z,39.46
2019-05-23T09:28:02.597Z,39.14
2019-05-23T09:29:02.596Z,38.29
2019-05-23T09:30:02.600Z,37.47
2019-05-23T09:31:02.642Z,36.55
2019-05-23T09:32:03.510Z,37.04
2019-05-23T09:33:02.544Z,38.18
2019-05-23T09:34:02.528Z,37.79
2019-05-23T09:35:19.200Z,37.88
2019-05-23T09:36:03.510Z,38.20
2019-05-23T09:37:02.526Z,39.53
2019-05-23T09:38:02.487Z,39.31
2019-05-23T09:39:02.504Z,38.11
2019-05-23T09:40:02.481Z,37.84
2019-05-23T09:41:02.548Z,35.77
2019-05-23T09:42:02.485Z,34.73
2019-05-23T09:43:02.437Z,33.70
2019-05-23T09:44:02.459Z,33.47
2019-05-23T09:45:02.495Z,33.67
2019-05-23T09:46:02.457Z,33.50
2019-05-23T09:47:02.459Z,33.62
2019-05-23T09:48:02.394Z,33.30
2019-05-23T09:49:02.393Z,33.23
2019-05-23T09:50:02.367Z,33.04
2019-05-23T09:51:02.396Z,33.45
2019-05-23T09:52:02.394Z,34.69
2019-05-23T09:53:02.387Z,35.41
2019-05-23T09:54:02.320Z,35.54
2019-05-23T09:55:02.310Z,35.36
2019-05-23T09:56:02.454Z,35.63
2019-05-23T09:57:02.328Z,35.14
2019-05-23T09:58:02.291Z,33.72
2019-05-23T09:59:02.281Z,35.63
2019-05-23T10:00:02.431Z,36.76
2019-05-23T10:01:02.292Z,36.96
2019-05-23T10:02:02.287Z,37.46
2019-05-23T10:03:02.230Z,37.74
2019-05-23T10:04:02.223Z,37.30
2019-05-23T10:05:02.201Z,35.11
2019-05-23T10:06:02.206Z,36.46
2019-05-23T10:07:02.222Z,35.26
2019-05-23T10:08:02.189Z,35.78
2019-05-23T10:09:02.167Z,36.49
2019-05-23T10:10:02.158Z,37.02
2019-05-23T10:11:02.192Z,34.66
2019-05-23T10:12:02.132Z,35.38
2019-05-23T10:13:02.173Z,34.99
2019-05-23T10:14:02.167Z,34.56
2019-05-23T10:15:02.128Z,35.36
2019-05-23T10:16:02.152Z,35.08
2019-05-23T10:17:02.091Z,35.28
2019-05-23T10:18:02.098Z,34.80
2019-05-23T10:19:02.060Z,35.24
2019-05-23T10:20:02.053Z,37.02
2019-05-23T10:21:02.099Z,35.91
2019-05-23T10:22:02.028Z,36.09
2019-05-23T10:23:02.098Z,34.81
2019-05-23T10:24:02.016Z,33.81
2019-05-23T10:25:01.994Z,33.59
2019-05-23T10:26:02.005Z,32.96
2019-05-23T10:27:01.985Z,32.45
2019-05-23T10:28:02.040Z,33.53
2019-05-23T10:29:01.962Z,34.58
2019-05-23T10:30:01.972Z,34.96
2019-05-23T10:31:01.943Z,35.34
2019-05-23T10:32:01.923Z,35.84
2019-05-23T10:33:01.978Z,33.47
2019-05-23T10:34:01.927Z,33.72
2019-05-23T10:35:01.902Z,30.49
2019-05-23T10:36:01.886Z,30.60
2019-05-23T10:37:01.878Z,31.31
2019-05-23T10:38:01.898Z,31.51
2019-05-23T10:39:01.887Z,32.72
2019-05-23T10:40:01.883Z,34.46
2019-05-23T10:41:01.840Z,34.68
2019-05-23T10:42:01.828Z,35.71
2019-05-23T10:43:01.861Z,36.86
2019-05-23T10:44:01.929Z,37.82
2019-05-23T10:45:01.856Z,36.43
2019-05-23T10:46:01.787Z,34.94
2019-05-23T10:47:01.827Z,33.92
2019-05-23T10:48:01.958Z,34.66
2019-05-23T10:49:01.758Z,35.06
2019-05-23T10:50:07.351Z,34.86
2019-05-23T10:51:02.795Z,34.96
2019-05-23T10:52:01.727Z,34.30
2019-05-23T10:53:01.771Z,34.55
2019-05-23T10:54:01.699Z,38.09
2019-05-23T10:55:01.811Z,37.90
2019-05-23T10:56:01.697Z,39.50
2019-05-23T10:57:01.720Z,37.88
2019-05-23T10:58:01.737Z,38.26
2019-05-23T10:59:01.651Z,37.76
2019-05-23T11:00:01.643Z,37.42
2019-05-23T11:01:01.690Z,35.29
2019-05-23T11:02:01.648Z,35.75
2019-05-23T11:03:01.680Z,35.06
2019-05-23T11:04:01.596Z,34.61
2019-05-23T11:05:12.240Z,34.03
2019-05-23T11:06:15.029Z,35.88
2019-05-23T11:07:02.624Z,36.72
2019-05-23T11:08:01.590Z,37.86
2019-05-23T11:09:01.569Z,38.18
2019-05-23T11:10:01.540Z,39.35
2019-05-23T11:11:01.528Z,40.15
2019-05-23T11:12:06.304Z,37.52
2019-05-23T11:13:01.633Z,35.05
2019-05-23T11:14:02.612Z,34.55
2019-05-23T11:15:01.703Z,31.59
2019-05-23T11:16:01.521Z,31.18
2019-05-23T11:17:03.226Z,31.23
2019-05-23T11:18:01.663Z,32.50
2019-05-23T11:19:01.577Z,30.70
2019-05-23T11:20:01.594Z,33.95
2019-05-23T11:21:01.444Z,34.56
2019-05-23T11:22:01.604Z,35.64
2019-05-23T11:23:03.727Z,34.83
2019-05-23T11:24:01.588Z,34.40
2019-05-23T11:25:02.402Z,35.26
2019-05-23T11:26:02.639Z,34.27
2019-05-23T11:27:01.908Z,35.96
2019-05-23T11:28:03.254Z,35.28
2019-05-23T11:29:01.360Z,37.71
2019-05-23T11:30:01.526Z,39.65
2019-05-23T11:31:01.489Z,39.33
2019-05-23T11:32:01.383Z,38.68
2019-05-23T11:33:10.031Z,37.58
2019-05-23T11:34:01.308Z,36.74
2019-05-23T11:35:01.344Z,36.79
2019-05-23T11:36:01.307Z,34.80
2019-05-23T11:37:01.262Z,34.17
2019-05-23T11:38:34.036Z,34.59
2019-05-23T11:39:01.352Z,33.40
2019-05-23T11:40:01.247Z,33.18
2019-05-23T11:41:01.608Z,33.80
2019-05-23T11:42:01.310Z,33.22
2019-05-23T11:44:51.717Z,32.76
2019-05-23T11:45:51.644Z,34.41
2019-05-23T11:46:51.795Z,35.34
2019-05-23T11:48:01.084Z,36.04
2019-05-23T11:48:51.879Z,35.54
2019-05-23T11:49:51.621Z,34.61
2019-05-23T11:50:51.816Z,33.95
2019-05-23T11:51:51.497Z,31.74
2019-05-23T11:52:56.081Z,32.57
2019-05-23T11:54:06.581Z,33.39
2019-05-23T11:54:52.901Z,31.45
2019-05-23T11:55:54.424Z,32.67
2019-05-23T11:56:51.458Z,32.97
2019-05-23T11:57:54.822Z,33.36
2019-05-23T11:58:51.969Z,31.95
2019-05-23T11:59:51.467Z,31.75
2019-05-23T12:00:51.543Z,30.35
2019-05-23T12:03:29.387Z,30.33
2019-05-23T12:04:29.204Z,31.65
2019-05-23T12:05:29.135Z,33.04
2019-05-23T12:06:29.132Z,32.76
2019-05-23T12:07:29.171Z,32.96
2019-05-23T12:08:29.170Z,33.50
2019-05-23T12:09:29.126Z,33.69
2019-05-23T12:10:29.111Z,33.59
2019-05-23T12:11:29.158Z,33.90
2019-05-23T12:12:29.067Z,35.19
2019-05-23T12:13:29.227Z,33.20
2019-05-23T12:14:29.076Z,33.09
2019-05-23T12:15:29.034Z,32.76
2019-05-23T12:16:29.029Z,33.57
2019-05-23T12:17:29.031Z,32.33
2019-05-23T12:18:30.011Z,31.72
2019-05-23T12:19:29.133Z,33.20
2019-05-23T12:20:29.853Z,34.53
2019-05-23T12:21:28.992Z,35.34
2019-05-23T12:22:28.984Z,34.50
2019-05-23T12:23:29.089Z,33.97
2019-05-23T12:24:29.219Z,34.52
2019-05-23T12:25:28.950Z,35.34
2019-05-23T12:26:28.936Z,35.74
2019-05-23T12:27:28.922Z,34.61
2019-05-23T12:28:28.990Z,33.78
2019-05-23T12:29:28.907Z,34.08
2019-05-23T12:30:28.913Z,33.40
2019-05-23T12:31:28.874Z,33.07
2019-05-23T12:32:28.865Z,33.39
2019-05-23T12:33:28.963Z,31.74
2019-05-23T12:34:28.886Z,31.52
2019-05-23T12:35:28.843Z,32.97
2019-05-23T12:36:28.885Z,35.28
2019-05-23T12:37:28.821Z,36.21
2019-05-23T12:38:28.868Z,37.24
2019-05-23T12:39:28.814Z,35.16
2019-05-23T12:40:28.951Z,34.53
2019-05-23T12:41:28.826Z,36.89
2019-05-23T12:42:28.789Z,36.43
2019-05-23T12:43:28.821Z,36.80
2019-05-23T12:44:28.807Z,36.69
2019-05-23T12:45:29.408Z,36.87
2019-05-23T12:46:35.870Z,38.12
2019-05-23T12:47:39.554Z,38.64
2019-05-23T12:48:36.759Z,38.79
2019-05-23T12:49:32.006Z,39.59
2019-05-23T12:50:29.954Z,39.07
2019-05-23T12:51:29.269Z,37.60
2019-05-23T12:52:28.698Z,36.34
2019-05-23T12:53:28.698Z,34.50
2019-05-23T12:54:28.752Z,32.99
2019-05-23T12:55:29.451Z,34.99